sensor_id;sensor_type;location;lat;lon;timestamp;pressure;altitude;pressure_sealevel;temperature
15680;BMP180;15488;48.114;11.532;2023-05-20T00:01:01;95343.00;;;20.70
15680;BMP180;15488;48.114;11.532;2023-05-20T00:03:28;95342.00;;;20.60
15680;BMP180;15488;48.114;11.532;2023-05-20T00:05:57;95338.00;;;20.60
15680;BMP180;15488;48.114;11.532;2023-05-20T00:08:25;95333.00;;;20.60
15680;BMP180;15488;48.114;11.532;2023-05-20T00:10:52;95333.00;;;20.60
15680;BMP180;15488;48.114;11.532;2023-05-20T00:13:20;95336.00;;;20.60
15680;BMP180;15488;48.114;11.532;2023-05-20T00:15:51;95337.00;;;20.60
15680;BMP180;15488;48.114;11.532;2023-05-20T00:18:18;95335.00;;;20.50
15680;BMP180;15488;48.114;11.532;2023-05-20T00:20:46;95334.00;;;20.50
15680;BMP180;15488;48.114;11.532;2023-05-20T00:23:14;95334.00;;;20.50
15680;BMP180;15488;48.114;11.532;2023-05-20T00:25:42;95343.00;;;20.50
15680;BMP180;15488;48.114;11.532;2023-05-20T00:28:09;95338.00;;;20.50
15680;BMP180;15488;48.114;11.532;2023-05-20T00:30:39;95336.00;;;20.60
15680;BMP180;15488;48.114;11.532;2023-05-20T00:33:07;95332.00;;;20.60
15680;BMP180;15488;48.114;11.532;2023-05-20T00:35:34;95334.00;;;20.60
15680;BMP180;15488;48.114;11.532;2023-05-20T00:38:02;95338.00;;;20.50
15680;BMP180;15488;48.114;11.532;2023-05-20T00:40:30;95333.00;;;20.50
15680;BMP180;15488;48.114;11.532;2023-05-20T00:43:08;95331.00;;;20.50
15680;BMP180;15488;48.114;11.532;2023-05-20T00:45:38;95329.00;;;20.50
15680;BMP180;15488;48.114;11.532;2023-05-20T00:48:06;95324.00;;;20.50
15680;BMP180;15488;48.114;11.532;2023-05-20T00:50:34;95323.00;;;20.40
15680;BMP180;15488;48.114;11.532;2023-05-20T00:53:05;95324.00;;;20.40
15680;BMP180;15488;48.114;11.532;2023-05-20T00:55:35;95330.00;;;20.40
15680;BMP180;15488;48.114;11.532;2023-05-20T00:58:02;95332.00;;;20.40
15680;BMP180;15488;48.114;11.532;2023-05-20T01:00:30;95325.00;;;20.40
15680;BMP180;15488;48.114;11.532;2023-05-20T01:02:58;95320.00;;;20.40
15680;BMP180;15488;48.114;11.532;2023-05-20T01:05:27;95324.00;;;20.40
15680;BMP180;15488;48.114;11.532;2023-05-20T01:07:57;95320.00;;;20.40
15680;BMP180;15488;48.114;11.532;2023-05-20T01:10:27;95322.00;;;20.40
15680;BMP180;15488;48.114;11.532;2023-05-20T01:13:02;95307.00;;;20.40
15680;BMP180;15488;48.114;11.532;2023-05-20T01:15:33;95307.00;;;20.40
15680;BMP180;15488;48.114;11.532;2023-05-20T01:18:02;95312.00;;;20.40
15680;BMP180;15488;48.114;11.532;2023-05-20T01:20:33;95312.00;;;20.40
15680;BMP180;15488;48.114;11.532;2023-05-20T01:23:02;95308.00;;;20.30
15680;BMP180;15488;48.114;11.532;2023-05-20T01:25:30;95309.00;;;20.30
15680;BMP180;15488;48.114;11.532;2023-05-20T01:27:57;95313.00;;;20.30
15680;BMP180;15488;48.114;11.532;2023-05-20T01:30:28;95309.00;;;20.30
15680;BMP180;15488;48.114;11.532;2023-05-20T01:33:00;95299.00;;;20.40
15680;BMP180;15488;48.114;11.532;2023-05-20T01:35:28;95298.00;;;20.30
15680;BMP180;15488;48.114;11.532;2023-05-20T01:37:57;95302.00;;;20.30
15680;BMP180;15488;48.114;11.532;2023-05-20T01:40:28;95298.00;;;20.30
15680;BMP180;15488;48.114;11.532;2023-05-20T01:42:56;95305.00;;;20.30
15680;BMP180;15488;48.114;11.532;2023-05-20T01:45:25;95304.00;;;20.30
15680;BMP180;15488;48.114;11.532;2023-05-20T01:47:52;95299.00;;;20.30
15680;BMP180;15488;48.114;11.532;2023-05-20T01:50:20;95300.00;;;20.30
15680;BMP180;15488;48.114;11.532;2023-05-20T01:52:47;95296.00;;;20.30
15680;BMP180;15488;48.114;11.532;2023-05-20T01:55:15;95292.00;;;20.30
15680;BMP180;15488;48.114;11.532;2023-05-20T01:57:43;95303.00;;;20.20
15680;BMP180;15488;48.114;11.532;2023-05-20T02:00:12;95293.00;;;20.20
15680;BMP180;15488;48.114;11.532;2023-05-20T02:02:40;95300.00;;;20.20
15680;BMP180;15488;48.114;11.532;2023-05-20T02:05:08;95295.00;;;20.30
15680;BMP180;15488;48.114;11.532;2023-05-20T02:07:36;95292.00;;;20.20
15680;BMP180;15488;48.114;11.532;2023-05-20T02:10:04;95280.00;;;20.20
15680;BMP180;15488;48.114;11.532;2023-05-20T02:12:32;95280.00;;;20.20
15680;BMP180;15488;48.114;11.532;2023-05-20T02:15:01;95291.00;;;20.20
15680;BMP180;15488;48.114;11.532;2023-05-20T02:17:28;95290.00;;;20.20
15680;BMP180;15488;48.114;11.532;2023-05-20T02:19:56;95295.00;;;20.20
15680;BMP180;15488;48.114;11.532;2023-05-20T02:22:23;95296.00;;;20.20
15680;BMP180;15488;48.114;11.532;2023-05-20T02:24:51;95303.00;;;20.20
15680;BMP180;15488;48.114;11.532;2023-05-20T02:27:18;95296.00;;;20.20
15680;BMP180;15488;48.114;11.532;2023-05-20T02:29:46;95297.00;;;20.20
15680;BMP180;15488;48.114;11.532;2023-05-20T02:32:14;95300.00;;;20.20
15680;BMP180;15488;48.114;11.532;2023-05-20T02:34:42;95293.00;;;20.20
15680;BMP180;15488;48.114;11.532;2023-05-20T02:37:09;95293.00;;;20.20
15680;BMP180;15488;48.114;11.532;2023-05-20T02:39:37;95287.00;;;20.10
15680;BMP180;15488;48.114;11.532;2023-05-20T02:42:05;95292.00;;;20.10
15680;BMP180;15488;48.114;11.532;2023-05-20T02:44:32;95296.00;;;20.10
15680;BMP180;15488;48.114;11.532;2023-05-20T02:46:59;95299.00;;;20.10
15680;BMP180;15488;48.114;11.532;2023-05-20T02:49:28;95295.00;;;20.10
15680;BMP180;15488;48.114;11.532;2023-05-20T02:51:56;95293.00;;;20.10
15680;BMP180;15488;48.114;11.532;2023-05-20T02:54:23;95299.00;;;20.10
15680;BMP180;15488;48.114;11.532;2023-05-20T02:56:51;95292.00;;;20.10
15680;BMP180;15488;48.114;11.532;2023-05-20T02:59:18;95286.00;;;20.10
15680;BMP180;15488;48.114;11.532;2023-05-20T03:01:46;95291.00;;;20.10
15680;BMP180;15488;48.114;11.532;2023-05-20T03:04:13;95294.00;;;20.10
15680;BMP180;15488;48.114;11.532;2023-05-20T03:06:42;95286.00;;;20.10
15680;BMP180;15488;48.114;11.532;2023-05-20T03:09:11;95289.00;;;20.10
15680;BMP180;15488;48.114;11.532;2023-05-20T03:11:39;95286.00;;;20.10
15680;BMP180;15488;48.114;11.532;2023-05-20T03:14:06;95287.00;;;20.10
15680;BMP180;15488;48.114;11.532;2023-05-20T03:16:34;95278.00;;;20.10
15680;BMP180;15488;48.114;11.532;2023-05-20T03:19:01;95283.00;;;20.00
15680;BMP180;15488;48.114;11.532;2023-05-20T03:21:29;95287.00;;;20.00
15680;BMP180;15488;48.114;11.532;2023-05-20T03:23:58;95292.00;;;20.00
15680;BMP180;15488;48.114;11.532;2023-05-20T03:26:25;95291.00;;;20.00
15680;BMP180;15488;48.114;11.532;2023-05-20T03:28:53;95290.00;;;20.00
15680;BMP180;15488;48.114;11.532;2023-05-20T03:31:20;95287.00;;;20.00
15680;BMP180;15488;48.114;11.532;2023-05-20T03:33:48;95293.00;;;20.00
15680;BMP180;15488;48.114;11.532;2023-05-20T03:36:15;95290.00;;;20.00
15680;BMP180;15488;48.114;11.532;2023-05-20T03:38:42;95292.00;;;20.00
15680;BMP180;15488;48.114;11.532;2023-05-20T03:41:12;95294.00;;;20.00
15680;BMP180;15488;48.114;11.532;2023-05-20T03:43:39;95295.00;;;20.00
15680;BMP180;15488;48.114;11.532;2023-05-20T03:46:06;95292.00;;;20.00
15680;BMP180;15488;48.114;11.532;2023-05-20T03:48:34;95297.00;;;20.00
15680;BMP180;15488;48.114;11.532;2023-05-20T03:51:01;95295.00;;;20.00
15680;BMP180;15488;48.114;11.532;2023-05-20T03:53:29;95297.00;;;20.00
15680;BMP180;15488;48.114;11.532;2023-05-20T03:55:56;95305.00;;;20.00
15680;BMP180;15488;48.114;11.532;2023-05-20T03:58:25;95306.00;;;20.00
15680;BMP180;15488;48.114;11.532;2023-05-20T04:00:54;95307.00;;;20.00
15680;BMP180;15488;48.114;11.532;2023-05-20T04:03:21;95302.00;;;20.00
15680;BMP180;15488;48.114;11.532;2023-05-20T04:05:49;95299.00;;;20.00
15680;BMP180;15488;48.114;11.532;2023-05-20T04:08:16;95299.00;;;20.00
15680;BMP180;15488;48.114;11.532;2023-05-20T04:10:44;95291.00;;;20.00
15680;BMP180;15488;48.114;11.532;2023-05-20T04:13:12;95292.00;;;20.00
15680;BMP180;15488;48.114;11.532;2023-05-20T04:15:41;95287.00;;;19.90
15680;BMP180;15488;48.114;11.532;2023-05-20T04:18:09;95283.00;;;20.00
15680;BMP180;15488;48.114;11.532;2023-05-20T04:20:36;95282.00;;;20.00
15680;BMP180;15488;48.114;11.532;2023-05-20T04:23:06;95286.00;;;19.90
15680;BMP180;15488;48.114;11.532;2023-05-20T04:25:33;95290.00;;;19.90
15680;BMP180;15488;48.114;11.532;2023-05-20T04:28:01;95286.00;;;19.90
15680;BMP180;15488;48.114;11.532;2023-05-20T04:30:29;95288.00;;;19.90
15680;BMP180;15488;48.114;11.532;2023-05-20T04:32:59;95287.00;;;19.90
15680;BMP180;15488;48.114;11.532;2023-05-20T04:35:29;95281.00;;;20.00
15680;BMP180;15488;48.114;11.532;2023-05-20T04:37:56;95277.00;;;20.00
15680;BMP180;15488;48.114;11.532;2023-05-20T04:40:24;95277.00;;;20.00
15680;BMP180;15488;48.114;11.532;2023-05-20T04:42:52;95277.00;;;19.90
15680;BMP180;15488;48.114;11.532;2023-05-20T04:45:20;95283.00;;;19.90
15680;BMP180;15488;48.114;11.532;2023-05-20T04:47:49;95289.00;;;20.00
15680;BMP180;15488;48.114;11.532;2023-05-20T04:50:19;95281.00;;;19.90
15680;BMP180;15488;48.114;11.532;2023-05-20T04:52:47;95281.00;;;20.00
15680;BMP180;15488;48.114;11.532;2023-05-20T04:55:15;95282.00;;;20.00
15680;BMP180;15488;48.114;11.532;2023-05-20T04:57:43;95281.00;;;20.00
15680;BMP180;15488;48.114;11.532;2023-05-20T05:00:12;95287.00;;;20.00
15680;BMP180;15488;48.114;11.532;2023-05-20T05:02:40;95288.00;;;20.00
15680;BMP180;15488;48.114;11.532;2023-05-20T05:05:07;95283.00;;;20.00
15680;BMP180;15488;48.114;11.532;2023-05-20T05:07:36;95291.00;;;20.00
15680;BMP180;15488;48.114;11.532;2023-05-20T05:10:04;95283.00;;;20.00
15680;BMP180;15488;48.114;11.532;2023-05-20T05:12:32;95286.00;;;20.00
15680;BMP180;15488;48.114;11.532;2023-05-20T05:14:59;95279.00;;;20.00
15680;BMP180;15488;48.114;11.532;2023-05-20T05:17:27;95275.00;;;20.00
15680;BMP180;15488;48.114;11.532;2023-05-20T05:19:54;95275.00;;;20.00
15680;BMP180;15488;48.114;11.532;2023-05-20T05:22:22;95272.00;;;20.00
15680;BMP180;15488;48.114;11.532;2023-05-20T05:24:51;95262.00;;;20.00
15680;BMP180;15488;48.114;11.532;2023-05-20T05:27:20;95266.00;;;20.00
15680;BMP180;15488;48.114;11.532;2023-05-20T05:29:48;95261.00;;;20.00
15680;BMP180;15488;48.114;11.532;2023-05-20T05:32:16;95276.00;;;20.10
15680;BMP180;15488;48.114;11.532;2023-05-20T05:34:43;95266.00;;;20.10
15680;BMP180;15488;48.114;11.532;2023-05-20T05:37:11;95277.00;;;20.10
15680;BMP180;15488;48.114;11.532;2023-05-20T05:39:39;95268.00;;;20.10
15680;BMP180;15488;48.114;11.532;2023-05-20T05:42:08;95272.00;;;20.10
15680;BMP180;15488;48.114;11.532;2023-05-20T05:44:35;95275.00;;;20.10
15680;BMP180;15488;48.114;11.532;2023-05-20T05:47:03;95276.00;;;20.10
15680;BMP180;15488;48.114;11.532;2023-05-20T05:49:31;95270.00;;;20.10
15680;BMP180;15488;48.114;11.532;2023-05-20T05:51:58;95276.00;;;20.10
15680;BMP180;15488;48.114;11.532;2023-05-20T05:54:26;95273.00;;;20.20
15680;BMP180;15488;48.114;11.532;2023-05-20T05:56:54;95275.00;;;20.20
15680;BMP180;15488;48.114;11.532;2023-05-20T05:59:23;95274.00;;;20.20
15680;BMP180;15488;48.114;11.532;2023-05-20T06:01:51;95270.00;;;20.20
15680;BMP180;15488;48.114;11.532;2023-05-20T06:04:18;95276.00;;;20.20
15680;BMP180;15488;48.114;11.532;2023-05-20T06:06:47;95277.00;;;20.20
15680;BMP180;15488;48.114;11.532;2023-05-20T06:09:15;95277.00;;;20.20
15680;BMP180;15488;48.114;11.532;2023-05-20T06:11:42;95282.00;;;20.30
15680;BMP180;15488;48.114;11.532;2023-05-20T06:14:10;95277.00;;;20.30
15680;BMP180;15488;48.114;11.532;2023-05-20T06:16:39;95275.00;;;20.30
15680;BMP180;15488;48.114;11.532;2023-05-20T06:19:06;95277.00;;;20.30
15680;BMP180;15488;48.114;11.532;2023-05-20T06:21:34;95278.00;;;20.30
15680;BMP180;15488;48.114;11.532;2023-05-20T06:24:02;95272.00;;;20.40
15680;BMP180;15488;48.114;11.532;2023-05-20T06:26:29;95276.00;;;20.40
15680;BMP180;15488;48.114;11.532;2023-05-20T06:28:57;95270.00;;;20.40
15680;BMP180;15488;48.114;11.532;2023-05-20T06:31:24;95273.00;;;20.50
15680;BMP180;15488;48.114;11.532;2023-05-20T06:33:53;95265.00;;;20.60
15680;BMP180;15488;48.114;11.532;2023-05-20T06:36:20;95266.00;;;20.60
15680;BMP180;15488;48.114;11.532;2023-05-20T06:38:48;95259.00;;;20.60
15680;BMP180;15488;48.114;11.532;2023-05-20T06:41:15;95266.00;;;20.60
15680;BMP180;15488;48.114;11.532;2023-05-20T06:43:43;95259.00;;;20.60
15680;BMP180;15488;48.114;11.532;2023-05-20T06:46:10;95265.00;;;20.70
15680;BMP180;15488;48.114;11.532;2023-05-20T06:48:37;95259.00;;;20.70
15680;BMP180;15488;48.114;11.532;2023-05-20T06:51:07;95264.00;;;20.70
15680;BMP180;15488;48.114;11.532;2023-05-20T06:53:35;95262.00;;;20.70
15680;BMP180;15488;48.114;11.532;2023-05-20T06:56:03;95263.00;;;20.70
15680;BMP180;15488;48.114;11.532;2023-05-20T06:58:31;95251.00;;;20.80
15680;BMP180;15488;48.114;11.532;2023-05-20T07:00:58;95254.00;;;20.80
15680;BMP180;15488;48.114;11.532;2023-05-20T07:03:26;95250.00;;;20.80
15680;BMP180;15488;48.114;11.532;2023-05-20T07:05:53;95258.00;;;20.90
15680;BMP180;15488;48.114;11.532;2023-05-20T07:08:22;95258.00;;;20.90
15680;BMP180;15488;48.114;11.532;2023-05-20T07:10:50;95257.00;;;21.00
15680;BMP180;15488;48.114;11.532;2023-05-20T07:13:17;95253.00;;;21.00
15680;BMP180;15488;48.114;11.532;2023-05-20T07:15:46;95261.00;;;21.00
15680;BMP180;15488;48.114;11.532;2023-05-20T07:18:13;95258.00;;;21.00
15680;BMP180;15488;48.114;11.532;2023-05-20T07:20:41;95249.00;;;21.10
15680;BMP180;15488;48.114;11.532;2023-05-20T07:23:08;95252.00;;;21.10
15680;BMP180;15488;48.114;11.532;2023-05-20T07:25:37;95249.00;;;21.10
15680;BMP180;15488;48.114;11.532;2023-05-20T07:28:05;95154.00;;;21.10
15680;BMP180;15488;48.114;11.532;2023-05-20T07:30:32;95247.00;;;21.10
15680;BMP180;15488;48.114;11.532;2023-05-20T07:33:00;95241.00;;;21.20
15680;BMP180;15488;48.114;11.532;2023-05-20T07:35:27;95245.00;;;21.20
15680;BMP180;15488;48.114;11.532;2023-05-20T07:37:55;95241.00;;;21.20
15680;BMP180;15488;48.114;11.532;2023-05-20T07:40:22;95247.00;;;21.20
15680;BMP180;15488;48.114;11.532;2023-05-20T07:42:51;95247.00;;;21.20
15680;BMP180;15488;48.114;11.532;2023-05-20T07:45:18;95242.00;;;21.30
15680;BMP180;15488;48.114;11.532;2023-05-20T07:47:46;95244.00;;;21.30
15680;BMP180;15488;48.114;11.532;2023-05-20T07:50:13;95241.00;;;21.30
15680;BMP180;15488;48.114;11.532;2023-05-20T07:52:41;95242.00;;;21.30
15680;BMP180;15488;48.114;11.532;2023-05-20T07:55:08;95243.00;;;21.40
15680;BMP180;15488;48.114;11.532;2023-05-20T07:57:36;95249.00;;;21.40
15680;BMP180;15488;48.114;11.532;2023-05-20T08:00:06;95246.00;;;21.50
15680;BMP180;15488;48.114;11.532;2023-05-20T08:02:34;95244.00;;;21.50
15680;BMP180;15488;48.114;11.532;2023-05-20T08:05:01;95242.00;;;21.50
15680;BMP180;15488;48.114;11.532;2023-05-20T08:07:30;95238.00;;;21.60
15680;BMP180;15488;48.114;11.532;2023-05-20T08:09:57;95233.00;;;21.60
15680;BMP180;15488;48.114;11.532;2023-05-20T08:12:26;95237.00;;;21.70
15680;BMP180;15488;48.114;11.532;2023-05-20T08:14:53;95230.00;;;21.70
15680;BMP180;15488;48.114;11.532;2023-05-20T08:17:22;95233.00;;;21.70
15680;BMP180;15488;48.114;11.532;2023-05-20T08:19:50;95231.00;;;21.70
15680;BMP180;15488;48.114;11.532;2023-05-20T08:22:17;95231.00;;;21.80
15680;BMP180;15488;48.114;11.532;2023-05-20T08:24:44;95222.00;;;21.80
15680;BMP180;15488;48.114;11.532;2023-05-20T08:27:12;95229.00;;;21.80
15680;BMP180;15488;48.114;11.532;2023-05-20T08:29:39;95232.00;;;21.80
15680;BMP180;15488;48.114;11.532;2023-05-20T08:32:07;95232.00;;;21.90
15680;BMP180;15488;48.114;11.532;2023-05-20T08:34:36;95227.00;;;21.90
15680;BMP180;15488;48.114;11.532;2023-05-20T08:37:04;95225.00;;;22.00
15680;BMP180;15488;48.114;11.532;2023-05-20T08:39:31;95223.00;;;22.00
15680;BMP180;15488;48.114;11.532;2023-05-20T08:41:59;95212.00;;;22.10
15680;BMP180;15488;48.114;11.532;2023-05-20T08:44:27;95213.00;;;22.10
15680;BMP180;15488;48.114;11.532;2023-05-20T08:46:56;95214.00;;;22.20
15680;BMP180;15488;48.114;11.532;2023-05-20T08:49:23;95211.00;;;22.20
15680;BMP180;15488;48.114;11.532;2023-05-20T08:51:52;95207.00;;;22.20
15680;BMP180;15488;48.114;11.532;2023-05-20T08:54:21;95209.00;;;22.30
15680;BMP180;15488;48.114;11.532;2023-05-20T08:56:50;95215.00;;;22.40
15680;BMP180;15488;48.114;11.532;2023-05-20T08:59:19;95209.00;;;22.40
15680;BMP180;15488;48.114;11.532;2023-05-20T09:01:47;95218.00;;;22.50
15680;BMP180;15488;48.114;11.532;2023-05-20T09:04:14;95214.00;;;22.60
15680;BMP180;15488;48.114;11.532;2023-05-20T09:06:43;95216.00;;;22.70
15680;BMP180;15488;48.114;11.532;2023-05-20T09:09:12;95216.00;;;22.70
15680;BMP180;15488;48.114;11.532;2023-05-20T09:11:41;95222.00;;;22.80
15680;BMP180;15488;48.114;11.532;2023-05-20T09:14:09;95222.00;;;22.90
15680;BMP180;15488;48.114;11.532;2023-05-20T09:16:38;95220.00;;;23.00
15680;BMP180;15488;48.114;11.532;2023-05-20T09:19:06;95216.00;;;23.10
15680;BMP180;15488;48.114;11.532;2023-05-20T09:21:35;95218.00;;;23.20
15680;BMP180;15488;48.114;11.532;2023-05-20T09:24:04;95224.00;;;23.30
15680;BMP180;15488;48.114;11.532;2023-05-20T09:26:33;95213.00;;;23.30
15680;BMP180;15488;48.114;11.532;2023-05-20T09:29:01;95212.00;;;23.40
15680;BMP180;15488;48.114;11.532;2023-05-20T09:31:30;95204.00;;;23.50
15680;BMP180;15488;48.114;11.532;2023-05-20T09:33:59;95201.00;;;23.60
15680;BMP180;15488;48.114;11.532;2023-05-20T09:36:28;95204.00;;;23.70
15680;BMP180;15488;48.114;11.532;2023-05-20T09:39:00;95206.00;;;23.70
15680;BMP180;15488;48.114;11.532;2023-05-20T09:41:42;95209.00;;;23.80
15680;BMP180;15488;48.114;11.532;2023-05-20T09:44:13;95203.00;;;23.90
15680;BMP180;15488;48.114;11.532;2023-05-20T09:46:42;95197.00;;;23.90
15680;BMP180;15488;48.114;11.532;2023-05-20T09:49:11;95194.00;;;24.00
15680;BMP180;15488;48.114;11.532;2023-05-20T09:51:40;95191.00;;;24.00
15680;BMP180;15488;48.114;11.532;2023-05-20T09:54:09;95189.00;;;24.10
15680;BMP180;15488;48.114;11.532;2023-05-20T09:56:41;95194.00;;;24.20
15680;BMP180;15488;48.114;11.532;2023-05-20T09:59:10;95181.00;;;24.30
15680;BMP180;15488;48.114;11.532;2023-05-20T10:01:38;95176.00;;;24.30
15680;BMP180;15488;48.114;11.532;2023-05-20T10:04:06;95181.00;;;24.40
15680;BMP180;15488;48.114;11.532;2023-05-20T10:07:01;95182.00;;;24.40
15680;BMP180;15488;48.114;11.532;2023-05-20T10:09:47;95184.00;;;24.50
15680;BMP180;15488;48.114;11.532;2023-05-20T10:12:25;95181.00;;;24.60
15680;BMP180;15488;48.114;11.532;2023-05-20T10:15:03;95179.00;;;24.60
15680;BMP180;15488;48.114;11.532;2023-05-20T10:17:39;95177.00;;;24.60
15680;BMP180;15488;48.114;11.532;2023-05-20T10:20:08;95177.00;;;24.70
15680;BMP180;15488;48.114;11.532;2023-05-20T10:22:37;95176.00;;;24.70
15680;BMP180;15488;48.114;11.532;2023-05-20T10:25:09;95174.00;;;24.70
15680;BMP180;15488;48.114;11.532;2023-05-20T10:27:45;95178.00;;;24.80
15680;BMP180;15488;48.114;11.532;2023-05-20T10:30:16;95177.00;;;24.80
15680;BMP180;15488;48.114;11.532;2023-05-20T10:32:51;95176.00;;;24.90
15680;BMP180;15488;48.114;11.532;2023-05-20T10:35:22;95159.00;;;24.90
15680;BMP180;15488;48.114;11.532;2023-05-20T10:37:52;95163.00;;;25.00
15680;BMP180;15488;48.114;11.532;2023-05-20T10:40:20;95158.00;;;25.10
15680;BMP180;15488;48.114;11.532;2023-05-20T10:42:49;95149.00;;;25.20
15680;BMP180;15488;48.114;11.532;2023-05-20T10:45:27;95147.00;;;25.30
15680;BMP180;15488;48.114;11.532;2023-05-20T10:47:55;95142.00;;;25.40
15680;BMP180;15488;48.114;11.532;2023-05-20T10:50:27;95147.00;;;25.50
15680;BMP180;15488;48.114;11.532;2023-05-20T10:53:01;95141.00;;;25.60
15680;BMP180;15488;48.114;11.532;2023-05-20T10:55:35;95141.00;;;25.70
15680;BMP180;15488;48.114;11.532;2023-05-20T10:58:05;95136.00;;;25.80
15680;BMP180;15488;48.114;11.532;2023-05-20T11:00:34;95132.00;;;25.80
15680;BMP180;15488;48.114;11.532;2023-05-20T11:03:03;95133.00;;;25.90
15680;BMP180;15488;48.114;11.532;2023-05-20T11:05:32;95133.00;;;26.00
15680;BMP180;15488;48.114;11.532;2023-05-20T11:08:02;95130.00;;;26.10
15680;BMP180;15488;48.114;11.532;2023-05-20T11:10:30;95120.00;;;26.20
15680;BMP180;15488;48.114;11.532;2023-05-20T11:13:01;95117.00;;;26.30
15680;BMP180;15488;48.114;11.532;2023-05-20T11:15:31;95125.00;;;26.30
15680;BMP180;15488;48.114;11.532;2023-05-20T11:18:01;95119.00;;;26.40
15680;BMP180;15488;48.114;11.532;2023-05-20T11:20:29;95123.00;;;26.50
15680;BMP180;15488;48.114;11.532;2023-05-20T11:23:00;95115.00;;;26.60
15680;BMP180;15488;48.114;11.532;2023-05-20T11:25:27;95117.00;;;26.70
15680;BMP180;15488;48.114;11.532;2023-05-20T11:27:55;95114.00;;;26.80
15680;BMP180;15488;48.114;11.532;2023-05-20T11:30:22;95105.00;;;26.90
15680;BMP180;15488;48.114;11.532;2023-05-20T11:32:59;95112.00;;;27.00
15680;BMP180;15488;48.114;11.532;2023-05-20T11:35:27;95106.00;;;27.10
15680;BMP180;15488;48.114;11.532;2023-05-20T11:38:01;95109.00;;;27.20
15680;BMP180;15488;48.114;11.532;2023-05-20T11:40:29;95107.00;;;27.30
15680;BMP180;15488;48.114;11.532;2023-05-20T11:42:59;95104.00;;;27.40
15680;BMP180;15488;48.114;11.532;2023-05-20T11:45:38;95101.00;;;27.60
15680;BMP180;15488;48.114;11.532;2023-05-20T11:48:07;95103.00;;;27.70
15680;BMP180;15488;48.114;11.532;2023-05-20T11:50:38;95099.00;;;27.80
15680;BMP180;15488;48.114;11.532;2023-05-20T11:53:07;95093.00;;;27.90
15680;BMP180;15488;48.114;11.532;2023-05-20T11:55:43;95092.00;;;28.10
15680;BMP180;15488;48.114;11.532;2023-05-20T11:58:12;95092.00;;;28.20
15680;BMP180;15488;48.114;11.532;2023-05-20T12:00:41;95091.00;;;28.30
15680;BMP180;15488;48.114;11.532;2023-05-20T12:03:10;95086.00;;;28.50
15680;BMP180;15488;48.114;11.532;2023-05-20T12:05:38;95089.00;;;28.60
15680;BMP180;15488;48.114;11.532;2023-05-20T12:08:06;95090.00;;;28.70
15680;BMP180;15488;48.114;11.532;2023-05-20T12:10:34;95079.00;;;28.80
15680;BMP180;15488;48.114;11.532;2023-05-20T12:13:02;95082.00;;;28.90
15680;BMP180;15488;48.114;11.532;2023-05-20T12:15:33;95081.00;;;29.00
15680;BMP180;15488;48.114;11.532;2023-05-20T12:18:01;95083.00;;;29.20
15680;BMP180;15488;48.114;11.532;2023-05-20T12:20:30;95079.00;;;29.30
15680;BMP180;15488;48.114;11.532;2023-05-20T12:22:59;95075.00;;;29.30
15680;BMP180;15488;48.114;11.532;2023-05-20T12:25:27;95072.00;;;29.40
15680;BMP180;15488;48.114;11.532;2023-05-20T12:27:55;95069.00;;;29.50
15680;BMP180;15488;48.114;11.532;2023-05-20T12:30:23;95077.00;;;29.60
15680;BMP180;15488;48.114;11.532;2023-05-20T12:32:51;95069.00;;;29.70
15680;BMP180;15488;48.114;11.532;2023-05-20T12:35:34;95067.00;;;29.80
15680;BMP180;15488;48.114;11.532;2023-05-20T12:38:04;95067.00;;;29.90
15680;BMP180;15488;48.114;11.532;2023-05-20T12:40:31;95069.00;;;30.00
15680;BMP180;15488;48.114;11.532;2023-05-20T12:43:00;95068.00;;;30.10
15680;BMP180;15488;48.114;11.532;2023-05-20T12:45:28;95076.00;;;30.20
15680;BMP180;15488;48.114;11.532;2023-05-20T12:47:56;95074.00;;;30.20
15680;BMP180;15488;48.114;11.532;2023-05-20T12:50:24;95069.00;;;30.30
15680;BMP180;15488;48.114;11.532;2023-05-20T12:52:51;95074.00;;;30.50
15680;BMP180;15488;48.114;11.532;2023-05-20T12:55:20;95076.00;;;30.60
15680;BMP180;15488;48.114;11.532;2023-05-20T12:57:48;95076.00;;;30.70
15680;BMP180;15488;48.114;11.532;2023-05-20T13:00:16;95073.00;;;30.80
15680;BMP180;15488;48.114;11.532;2023-05-20T13:02:43;95067.00;;;30.90
15680;BMP180;15488;48.114;11.532;2023-05-20T13:05:11;95066.00;;;31.00
15680;BMP180;15488;48.114;11.532;2023-05-20T13:07:40;95070.00;;;31.10
15680;BMP180;15488;48.114;11.532;2023-05-20T13:10:08;95066.00;;;31.20
15680;BMP180;15488;48.114;11.532;2023-05-20T13:12:37;95061.00;;;31.40
15680;BMP180;15488;48.114;11.532;2023-05-20T13:15:11;95061.00;;;31.50
15680;BMP180;15488;48.114;11.532;2023-05-20T13:17:39;95056.00;;;31.60
15680;BMP180;15488;48.114;11.532;2023-05-20T13:20:08;95057.00;;;31.80
15680;BMP180;15488;48.114;11.532;2023-05-20T13:22:37;95062.00;;;32.00
15680;BMP180;15488;48.114;11.532;2023-05-20T13:25:05;95052.00;;;32.20
15680;BMP180;15488;48.114;11.532;2023-05-20T13:27:32;95053.00;;;32.40
15680;BMP180;15488;48.114;11.532;2023-05-20T13:30:02;95047.00;;;32.60
15680;BMP180;15488;48.114;11.532;2023-05-20T13:32:31;95045.00;;;32.80
15680;BMP180;15488;48.114;11.532;2023-05-20T13:34:58;95040.00;;;33.00
15680;BMP180;15488;48.114;11.532;2023-05-20T13:37:26;95041.00;;;33.10
15680;BMP180;15488;48.114;11.532;2023-05-20T13:39:53;95047.00;;;33.30
15680;BMP180;15488;48.114;11.532;2023-05-20T13:42:21;95038.00;;;33.40
15680;BMP180;15488;48.114;11.532;2023-05-20T13:44:48;95037.00;;;33.50
15680;BMP180;15488;48.114;11.532;2023-05-20T13:47:17;95040.00;;;33.60
15680;BMP180;15488;48.114;11.532;2023-05-20T13:49:45;95035.00;;;33.60
15680;BMP180;15488;48.114;11.532;2023-05-20T13:52:12;95034.00;;;33.50
15680;BMP180;15488;48.114;11.532;2023-05-20T13:54:40;95032.00;;;33.40
15680;BMP180;15488;48.114;11.532;2023-05-20T13:57:08;95035.00;;;33.20
15680;BMP180;15488;48.114;11.532;2023-05-20T13:59:35;95021.00;;;33.00
15680;BMP180;15488;48.114;11.532;2023-05-20T14:02:03;95021.00;;;32.90
15680;BMP180;15488;48.114;11.532;2023-05-20T14:04:32;95016.00;;;32.70